Date,TemperatureHighF,TemperatureAvgF,TemperatureLowF,DewpointHighF,DewpointAvgF,DewpointLowF,HumidityHigh,HumidityAvg,HumidityLow,PressureMaxIn,PressureMinIn,WindSpeedMaxMPH,WindSpeedAvgMPH,GustSpeedMaxMPH,PrecipitationSumIn
2013-1-1,42,37,31,40,33,25,100,86,54,30.37,30.19,4,1,17,0.02
2013-1-2,48,42,38,30,26,24,59,54,48,30.19,30.06,4,3,21,0.00
2013-1-3,48,40,37,48,30,23,100,70,49,30.09,29.95,6,3,17,0.27
2013-1-4,48,45,43,48,45,43,100,100,97,30.24,30.07,4,0,13,0.02
2013-1-5,47,43,37,43,39,36,100,86,72,30.11,30.01,3,1,12,0.15
2013-1-6,47,43,38,47,43,38,100,100,95,30.12,29.89,8,2,22,0.93
2013-1-7,49,48,44,49,48,44,100,100,100,30.13,29.84,7,1,14,0.74
2013-1-8,50,48,44,50,48,44,100,100,100,30.12,29.74,9,4,27,0.86
2013-1-9,49,42,37,49,41,36,100,96,80,29.90,29.68,8,1,19,1.29
2013-1-10,44,38,32,44,37,32,100,97,83,30.06,29.90,4,0,10,0.15
2013-1-11,42,33,29,37,30,26,100,92,57,30.25,30.06,2,0,10,0.01
2013-1-12,41,33,28,33,29,26,98,85,59,30.36,30.23,2,0,5,0.01
2013-1-13,40,33,27,34,29,27,100,87,61,30.42,30.36,1,0,5,0.00
2013-1-14,40,37,34,40,36,31,100,96,87,30.48,30.40,4,1,12,0.07
2013-1-15,44,38,34,43,37,34,100,98,84,30.61,30.48,2,0,5,0.01
2013-1-16,47,35,29,40,34,29,100,95,73,30.58,30.38,1,0,3,0.00
2013-1-17,56,38,30,45,36,30,100,93,60,30.38,30.20,1,0,5,0.01
2013-1-18,50,36,28,47,35,28,100,96,73,30.20,30.16,1,0,3,0.01
2013-1-19,52,40,33,43,38,33,100,93,71,30.26,30.16,2,0,6,0.01
2013-1-20,45,36,30,45,36,30,100,98,84,30.27,30.14,1,0,5,0.00
2013-1-21,52,36,29,43,34,29,100,92,57,30.15,30.01,2,0,5,0.02
2013-1-22,53,46,38,35,30,27,81,54,37,30.02,29.83,1,0,8,0.00
2013-1-23,47,43,38,46,42,35,100,98,65,30.11,29.76,5,0,14,0.69
2013-1-24,46,41,35,46,41,35,100,100,99,30.13,29.98,8,2,22,0.43
2013-1-25,50,46,41,50,45,41,100,97,81,29.99,29.85,7,2,24,0.32
2013-1-26,46,42,41,46,42,41,100,100,100,30.01,29.81,3,0,16,0.99
2013-1-27,43,42,38,43,42,38,100,100,100,30.04,29.95,1,0,8,0.68
2013-1-28,45,44,42,45,44,42,100,100,100,30.15,30.03,2,1,18,0.37
2013-1-29,48,46,44,48,46,44,100,100,100,30.38,30.14,4,1,12,0.47
2013-1-30,48,48,47,48,48,47,100,100,100,30.38,30.33,1,0,6,0.62
2013-1-31,48,47,46,48,47,46,100,100,100,30.38,30.27,5,2,17,0.15
2013-2-1,52,46,42,52,46,41,100,99,91,30.31,30.22,2,0,7,0.02
2013-2-2,59,46,40,47,44,40,100,91,55,30.23,30.16,4,1,12,0.01
2013-2-3,49,46,43,47,46,43,100,98,87,30.25,30.17,2,0,8,0.00
2013-2-4,50,46,44,47,44,42,100,94,83,30.17,29.85,6,1,24,0.00
2013-2-5,51,46,44,51,46,43,100,99,89,29.92,29.78,8,3,22,0.51
2013-2-6,47,45,42,47,45,42,100,99,92,29.96,29.69,9,4,27,0.61
2013-2-7,44,40,35,44,40,35,100,98,87,30.13,29.75,7,1,20,0.32
2013-2-8,48,39,32,46,39,32,100,98,85,30.25,30.13,1,0,6,0.01
2013-2-9,47,44,40,47,44,40,100,100,100,30.26,30.20,1,0,5,0.04
2013-2-10,48,44,41,48,43,41,100,97,85,30.31,30.26,0,0,3,0.01
2013-2-11,50,45,42,50,45,41,100,99,91,30.31,30.28,2,0,8,0.10
2013-2-12,49,47,46,49,47,46,100,100,100,30.39,30.30,3,1,12,0.18
2013-2-13,52,46,40,50,45,40,100,97,82,30.45,30.34,2,0,10,0.02
2013-2-14,49,46,42,49,46,42,100,100,100,30.48,30.44,4,1,12,0.07
2013-2-15,58,47,39,53,46,39,100,96,76,30.46,30.12,2,0,6,0.00
2013-2-16,53,46,42,51,44,36,100,95,76,30.22,30.16,2,0,10,0.15
2013-2-17,50,43,39,43,40,36,100,89,72,30.23,30.04,4,0,10,0.03
2013-2-18,44,41,38,44,41,38,100,100,97,30.04,29.64,5,2,17,0.29
2013-2-19,50,42,38,45,41,38,100,95,76,29.95,29.63,1,0,6,0.00
2013-2-20,45,42,38,45,42,38,100,100,85,29.99,29.89,6,1,18,0.13
2013-2-21,47,44,40,47,43,39,100,99,85,30.07,29.98,6,1,18,0.34
2013-2-22,48,44,38,48,44,37,100,98,84,30.05,29.77,8,3,26,1.54
2013-2-23,51,44,41,42,40,37,97,84,69,30.35,29.96,3,1,13,0.03
2013-2-24,47,44,41,46,42,39,100,91,80,30.34,29.88,8,4,26,0.30
2013-2-25,51,44,41,46,41,38,100,89,73,30.29,29.87,7,1,19,0.19
2013-2-26,48,42,37,44,40,37,100,94,71,30.29,30.13,7,3,21,0.18
2013-2-27,48,45,40,48,45,40,100,100,100,30.21,30.13,5,1,12,0.08
2013-2-28,50,48,46,50,48,46,100,100,100,30.31,30.07,8,4,21,1.42
2013-3-1,53,50,48,53,50,48,100,100,100,30.35,30.25,9,4,24,0.01
2013-3-2,50,46,42,50,46,39,100,99,89,30.25,30.11,4,1,16,0.07
2013-3-3,51,43,34,44,39,34,100,87,72,30.26,30.22,2,0,7,0.03
2013-3-4,57,44,32,44,35,27,100,75,34,30.22,29.82,4,1,18,0.00
2013-3-5,44,42,39,44,42,39,100,100,95,29.82,29.60,3,0,12,0.36
2013-3-6,44,43,41,44,43,41,100,100,100,29.84,29.51,2,0,11,0.63
2013-3-7,51,44,37,50,43,37,100,98,80,30.01,29.84,4,1,13,0.31
2013-3-8,54,42,33,48,40,33,100,95,74,30.18,29.99,2,0,10,0.00
2013-3-9,50,41,34,47,40,34,100,96,81,30.46,30.18,2,0,6,0.01
2013-3-10,46,43,38,46,43,38,100,100,100,30.44,30.36,2,0,8,0.09
2013-3-11,49,47,45,49,47,45,100,100,100,30.37,30.14,6,1,17,0.26
2013-3-12,49,48,47,49,48,47,100,100,100,30.14,30.06,8,5,25,0.17
2013-3-13,51,49,47,50,49,47,100,100,100,30.15,30.04,7,2,21,0.27
2013-3-14,50,48,47,49,48,47,100,99,92,30.11,30.00,8,4,26,0.20
2013-3-15,50,48,47,50,48,47,100,100,100,30.18,30.11,4,2,14,0.14
2013-3-16,50,46,42,48,45,39,100,97,78,30.13,29.96,3,1,14,0.08
2013-3-17,51,44,39,42,39,36,95,84,66,30.22,30.05,3,1,12,0.05
2013-3-18,53,45,37,47,40,36,100,85,62,30.21,30.11,3,0,12,0.04
2013-3-19,50,44,36,49,40,33,100,87,59,30.11,29.47,11,3,33,0.74
2013-3-20,49,46,40,49,44,36,100,95,80,30.05,29.34,12,4,31,0.57
2013-3-21,50,41,37,43,39,35,100,93,74,30.23,30.05,3,1,18,0.20
2013-3-22,50,42,36,41,36,32,100,81,60,30.33,30.23,2,0,12,0.08
2013-3-23,48,41,37,40,38,34,100,88,70,30.34,30.23,3,0,8,0.01
2013-3-24,54,45,40,44,40,34,100,83,49,30.23,30.03,4,0,11,0.00
2013-3-25,59,48,41,46,42,35,100,83,43,30.03,29.89,2,0,10,0.00
2013-3-26,52,48,46,51,48,46,100,100,98,29.97,29.92,2,0,7,0.02
2013-3-27,58,50,46,54,49,46,100,96,76,29.94,29.86,2,0,8,0.02
2013-3-28,57,51,48,55,50,48,100,97,80,30.10,29.94,4,0,8,0.08
2013-3-29,57,50,45,55,49,45,100,97,83,30.18,30.10,2,0,8,0.01
2013-3-30,72,56,42,52,48,42,100,77,45,30.16,29.92,3,1,8,0.00
2013-3-31,58,50,44,53,48,44,100,95,61,29.96,29.91,5,2,18,0.00
2013-4-1,53,50,48,50,49,48,100,97,86,30.13,29.96,5,2,17,0.01
2013-4-2,52,49,47,52,48,45,100,99,93,30.17,30.13,4,1,12,0.02
2013-4-3,56,51,45,54,48,44,100,92,78,30.15,29.83,2,0,6,0.01
2013-4-4,55,52,50,55,52,50,100,100,92,29.83,29.56,12,3,30,0.38
2013-4-5,52,50,49,52,50,49,100,100,100,29.84,29.63,12,5,38,1.35
2013-4-6,54,49,43,52,48,43,100,99,88,29.89,29.57,6,3,38,0.49
2013-4-7,50,45,40,50,45,40,100,100,96,29.90,29.38,6,1,17,0.71
2013-4-8,54,48,42,49,45,40,100,91,79,30.24,29.90,1,0,7,0.01
2013-4-9,53,47,40,48,44,40,100,90,73,30.28,30.14,5,1,17,0.01
2013-4-10,56,50,47,55,49,44,100,94,78,30.28,29.97,8,2,27,0.59
2013-4-11,55,48,44,49,43,38,100,84,57,30.30,30.15,2,0,7,0.06
2013-4-12,48,44,41,47,42,38,100,92,74,30.16,29.75,7,2,21,0.42
2013-4-13,53,45,40,48,42,35,100,90,75,30.00,29.86,3,1,16,0.19
2013-4-14,55,47,42,45,41,38,99,79,63,30.00,29.92,3,0,10,0.01
2013-4-15,56,47,40,47,43,39,100,88,67,30.13,29.90,2,0,10,0.09
2013-4-16,56,48,40,48,45,40,100,90,74,30.36,30.13,3,1,10,0.00
2013-4-17,56,48,42,51,46,42,100,92,74,30.45,30.35,4,0,8,0.04
2013-4-18,50,47,43,50,47,43,100,100,95,30.42,30.21,7,2,18,0.40
2013-4-19,52,50,47,52,50,47,100,100,100,30.24,30.05,6,1,19,1.01
2013-4-20,54,48,45,54,48,45,100,99,90,30.30,30.23,3,0,8,0.07
2013-4-21,56,49,45,50,46,44,100,90,68,30.29,30.22,2,0,10,0.02
2013-4-22,64,50,40,49,42,35,100,77,37,30.42,30.30,3,1,8,0.00
2013-4-23,60,49,39,50,43,33,100,84,39,30.36,30.18,2,0,8,0.00
2013-4-24,71,54,43,49,45,37,100,76,31,30.21,30.03,3,1,7,0.00
2013-4-25,58,51,44,53,49,44,100,94,80,30.16,30.00,2,0,7,0.00
2013-4-26,58,50,45,51,48,45,100,93,73,30.23,30.16,2,0,7,0.00
2013-4-27,53,49,44,52,49,44,100,99,85,30.25,30.17,4,1,12,0.07
2013-4-28,57,52,48,54,49,45,100,93,70,30.22,29.98,6,2,16,0.28
2013-4-29,56,49,44,51,43,38,100,80,57,30.19,29.99,2,1,12,0.02
2013-4-30,56,48,43,42,38,36,85,69,48,30.43,30.18,2,1,10,0.01
2013-5-1,59,48,36,48,42,36,100,80,56,30.49,30.43,3,1,12,0.00
2013-5-2,67,52,43,49,45,41,95,79,41,30.43,30.31,3,1,8,0.00
2013-5-3,64,52,41,52,48,41,100,88,53,30.32,30.15,3,1,12,0.00
2013-5-4,82,61,44,51,47,40,100,65,25,30.15,29.88,3,1,10,0.00
2013-5-5,86,67,52,50,44,38,94,49,18,29.88,29.68,4,1,11,0.00
2013-5-6,59,54,50,54,52,50,100,94,84,29.86,29.76,6,2,17,0.00
2013-5-7,56,54,52,54,52,50,100,94,87,30.00,29.86,5,2,14,0.00
2013-5-8,60,55,51,54,51,49,95,88,76,30.14,30.00,5,1,12,0.00
2013-5-9,59,53,48,52,50,48,100,90,76,30.18,30.12,2,0,8,0.00
2013-5-10,57,52,49,51,50,48,100,93,77,30.19,30.13,2,0,8,0.00
2013-5-11,62,56,51,58,54,50,100,92,73,30.17,30.00,4,1,11,0.00
2013-5-12,58,56,55,58,56,55,100,98,92,30.07,30.00,6,2,17,0.21
2013-5-13,58,54,46,57,53,46,100,97,77,30.17,29.95,7,2,21,0.19
2013-5-14,62,53,46,52,49,46,100,86,62,30.18,30.09,3,0,10,0.01
2013-5-15,54,52,47,54,51,47,100,98,83,30.09,29.95,6,2,16,0.08
2013-5-16,61,55,52,59,54,52,100,97,86,29.95,29.88,5,2,17,0.12
2013-5-17,60,55,52,56,53,50,100,95,78,30.03,29.91,6,2,16,0.03
2013-5-18,57,53,50,56,53,50,100,98,89,30.26,30.02,4,1,12,0.09
2013-5-19,61,54,50,53,49,46,100,82,71,30.41,30.26,2,0,8,0.00
2013-5-20,61,54,48,51,48,46,100,82,66,30.35,29.91,2,0,11,0.03
2013-5-21,56,49,46,52,47,42,100,93,78,29.91,29.80,2,0,10,0.15
2013-5-22,55,50,44,52,48,44,100,94,81,29.87,29.82,3,1,10,0.11
2013-5-23,51,48,44,51,48,44,100,100,100,29.89,29.86,3,0,11,0.86
2013-5-24,60,52,46,57,50,46,100,94,74,30.03,29.88,2,0,10,0.12
2013-5-25,53,51,49,53,51,49,100,100,100,30.01,29.89,4,1,13,0.38
2013-5-26,56,53,50,56,53,50,100,100,93,29.96,29.88,6,3,19,0.09
2013-5-27,55,52,51,54,52,51,100,99,93,29.90,29.60,8,2,21,0.53
2013-5-28,58,53,50,56,52,50,100,96,84,29.87,29.69,5,2,17,0.43
2013-5-29,60,52,49,57,52,49,100,97,80,29.98,29.60,4,1,13,0.37
2013-5-30,60,54,50,56,52,49,100,94,80,30.21,29.97,6,2,18,0.22
2013-5-31,63,55,50,55,52,49,100,89,69,30.29,30.21,1,0,7,0.00
2013-6-1,63,56,49,56,53,49,100,90,72,30.21,30.04,4,1,11,0.00
2013-6-2,64,58,54,56,54,51,100,89,73,30.09,30.03,2,0,10,0.00
2013-6-3,62,56,53,53,51,50,93,84,68,30.11,30.06,1,0,7,0.00
2013-6-4,63,57,52,56,54,50,100,90,76,30.08,30.02,3,1,10,0.00
2013-6-5,60,55,51,59,55,51,100,98,86,30.11,30.02,1,0,6,0.01
2013-6-6,61,56,50,55,53,50,100,92,76,30.07,30.01,1,0,7,0.00
2013-6-7,62,54,48,60,53,48,100,96,79,30.16,30.04,3,1,10,0.00
2013-6-8,65,56,49,56,52,49,100,87,66,30.16,30.11,2,0,7,0.01
2013-6-9,65,56,50,55,51,48,100,85,62,30.11,30.03,2,0,12,0.00
2013-6-10,65,56,47,54,50,47,100,83,60,30.03,29.94,2,0,11,0.00
2013-6-11,62,56,52,53,51,50,100,84,69,30.09,29.94,4,1,13,0.05
2013-6-12,60,54,49,56,52,49,100,95,76,30.13,30.07,4,1,11,0.38
2013-6-13,64,57,52,59,54,51,100,89,69,30.24,30.09,2,0,8,0.12
2013-6-14,64,57,52,54,52,50,100,86,67,30.23,29.96,3,0,10,0.01
2013-6-15,65,58,50,58,54,50,100,87,69,30.00,29.88,4,1,12,0.00
2013-6-16,64,60,57,58,54,52,98,81,69,30.07,29.99,3,1,8,0.00
2013-6-17,65,59,55,58,56,52,100,90,69,30.06,29.92,5,2,14,0.17
2013-6-18,63,57,53,57,54,52,100,89,75,29.93,29.90,7,2,19,0.01
2013-6-19,64,58,50,60,55,50,100,91,73,30.01,29.89,5,1,13,0.25
2013-6-20,67,60,56,57,54,51,97,83,63,30.10,29.98,3,0,11,0.00
2013-6-21,66,59,53,59,55,51,100,89,71,30.13,30.08,2,0,8,0.10
2013-6-22,70,60,50,60,56,50,100,85,63,30.09,29.80,3,1,8,0.00
2013-6-23,63,61,58,63,60,56,100,99,87,29.80,29.56,4,1,12,0.40
2013-6-24,64,59,55,60,57,55,100,93,80,29.64,29.55,5,2,18,0.18
2013-6-25,66,60,56,62,58,56,100,95,80,29.77,29.58,8,4,25,0.46
2013-6-26,63,60,57,63,60,57,100,100,94,29.98,29.76,7,2,20,0.19
2013-6-27,63,61,60,63,61,60,100,100,100,30.15,29.94,6,1,18,0.31
2013-6-28,69,63,57,67,62,57,100,98,86,30.13,30.04,5,1,11,0.00
2013-6-29,70,64,59,65,62,59,100,94,81,30.07,29.96,2,0,7,0.00
2013-6-30,74,65,57,69,62,57,100,92,73,29.96,29.88,1,0,7,0.00
2013-7-1,67,62,60,65,61,60,100,97,84,30.05,29.92,1,0,6,0.01
2013-7-2,69,62,58,62,60,58,100,93,76,30.11,30.04,2,0,8,0.00
2013-7-3,69,62,57,59,57,56,100,88,68,30.15,30.09,2,0,11,0.00
2013-7-4,70,62,58,61,58,56,99,87,72,30.12,30.04,1,0,8,0.00
2013-7-5,68,61,58,60,58,55,100,88,69,30.04,29.97,2,0,8,0.00
2013-7-6,68,61,57,60,57,55,100,89,73,29.97,29.88,2,0,8,0.00
2013-7-7,64,60,58,59,57,55,100,90,80,29.96,29.90,1,0,7,0.00
2013-7-8,68,60,56,60,57,55,100,89,72,30.07,29.96,2,0,10,0.00
2013-7-9,60,57,53,60,56,53,100,98,89,30.09,30.05,2,0,7,0.00
2013-7-10,66,57,51,57,54,51,100,90,72,30.08,30.00,1,0,6,0.00
2013-7-11,67,58,52,58,55,52,100,90,71,30.06,30.00,2,0,8,0.00
2013-7-12,66,56,50,59,54,50,100,94,76,30.10,29.98,2,0,7,0.00
2013-7-13,67,56,48,59,54,48,100,92,73,30.15,30.09,2,0,10,0.01
2013-7-14,64,56,52,58,54,52,100,94,78,30.10,30.01,2,1,11,0.00
2013-7-15,64,57,50,59,54,50,100,92,77,30.02,29.83,2,1,10,0.00
2013-7-16,78,60,50,64,57,50,100,91,53,29.92,29.71,5,1,18,0.01
2013-7-17,64,59,56,60,58,56,100,97,87,30.17,29.92,5,2,14,0.00
2013-7-18,67,59,54,59,56,53,100,91,73,30.19,30.13,2,0,10,0.00
2013-7-19,62,57,54,58,56,54,100,96,81,30.14,30.08,2,0,10,0.00
2013-7-20,61,57,54,60,56,54,100,97,87,30.08,29.98,1,0,8,0.02
2013-7-21,62,57,54,62,57,54,100,100,95,29.98,29.94,1,0,5,0.05
2013-7-22,62,57,53,60,56,53,100,99,90,30.05,29.95,1,0,7,0.04
2013-7-23,58,54,51,58,54,51,100,100,95,30.04,30.00,2,0,10,0.00
2013-7-24,60,55,52,58,54,52,100,99,90,30.06,30.03,1,0,7,0.02
2013-7-25,65,56,50,62,55,50,100,96,79,30.11,30.03,2,0,6,0.02
2013-7-26,64,55,47,60,53,47,100,93,78,30.18,30.08,2,0,8,0.01
2013-7-27,63,56,51,60,55,51,100,97,87,30.16,30.02,3,0,7,0.01
2013-7-28,61,58,56,60,58,56,100,99,92,30.02,29.95,2,0,7,0.00
2013-7-29,65,59,55,59,57,55,100,94,79,30.01,29.93,2,0,8,0.00
2013-7-30,64,59,56,62,59,56,100,99,90,30.12,30.01,3,0,8,0.00
2013-7-31,63,59,56,60,58,56,100,97,87,30.10,30.02,1,0,6,0.01
2013-8-1,62,58,56,62,58,56,100,100,100,30.05,30.00,4,1,12,0.03
2013-8-2,64,60,58,63,60,58,100,99,93,30.09,30.03,4,1,11,0.00
2013-8-3,67,61,56,62,59,56,100,94,79,30.08,30.01,2,1,9,0.00
2013-8-4,61,56,54,60,56,54,100,99,92,30.02,29.96,2,0,10,0.00
2013-8-5,60,55,52,58,55,52,100,99,90,30.02,29.96,1,0,5,0.03
2013-8-6,60,55,51,59,54,51,100,99,88,29.99,29.94,2,0,7,0.01
2013-8-7,64,57,52,61,56,51,100,98,84,30.03,29.94,2,0,8,0.04
2013-8-8,64,59,57,62,58,57,100,100,93,30.02,29.95,1,0,7,0.04
2013-8-9,64,58,56,63,58,56,100,99,90,29.95,29.88,2,0,6,0.03
2013-8-10,66,60,56,64,59,56,100,96,87,30.02,29.90,1,0,8,0.12
2013-8-11,68,61,56,63,59,56,100,94,79,30.03,29.99,2,0,7,0.00
2013-8-12,68,62,54,62,59,54,100,91,73,30.05,29.99,2,0,7,0.00
2013-8-13,69,60,51,64,57,51,100,92,73,30.06,29.89,1,0,6,0.00
2013-8-14,68,60,54,62,59,54,100,97,67,29.91,29.87,4,1,14,0.58
2013-8-15,67,62,60,67,62,59,100,99,94,29.95,29.88,2,0,7,0.07
2013-8-16,66,62,59,66,62,59,100,100,97,30.01,29.92,4,1,11,0.01
2013-8-17,68,61,56,66,61,56,100,99,89,30.06,29.98,3,1,13,0.02
2013-8-18,70,62,56,67,61,56,100,98,85,30.11,30.05,4,1,10,0.01
2013-8-19,68,60,54,65,60,54,100,98,86,30.11,30.03,3,0,10,0.00
2013-8-20,68,60,55,62,58,55,100,94,79,30.11,30.02,2,1,11,0.01
2013-8-21,66,59,52,61,57,52,100,93,77,30.02,29.87,2,1,10,0.01
2013-8-22,65,59,52,62,58,52,100,97,84,29.88,29.83,2,0,7,0.00
2013-8-23,66,60,58,64,60,58,100,99,87,29.88,29.83,5,2,14,0.04
2013-8-24,66,61,56,65,60,56,100,98,90,29.88,29.84,4,1,10,0.02
2013-8-25,66,58,52,63,57,52,100,98,86,29.89,29.85,1,0,5,0.00
2013-8-26,66,58,52,63,57,52,100,97,74,29.88,29.82,9,3,27,0.20
2013-8-27,69,62,59,68,62,59,100,99,90,29.88,29.77,5,0,14,0.06
2013-8-28,70,63,61,69,63,61,100,99,92,29.85,29.77,4,1,12,0.18
2013-8-29,65,63,62,65,63,62,100,100,100,29.99,29.77,8,3,25,0.48
2013-8-30,64,61,59,64,61,59,100,100,100,30.12,29.99,5,1,16,0.00
2013-8-31,74,62,53,73,62,53,100,100,97,30.02,29.82,2,0,8,0.01
2013-9-1,71,63,57,68,62,57,100,98,79,29.85,29.79,3,1,10,0.00
2013-9-2,69,64,56,69,64,56,100,100,100,29.88,29.80,5,2,13,0.00
2013-9-3,71,61,54,70,61,54,100,100,95,29.97,29.88,5,1,13,0.00
2013-9-4,69,62,58,69,62,58,100,100,100,30.02,29.94,3,0,10,0.00
2013-9-5,66,63,60,66,63,60,100,100,100,30.00,29.91,1,0,6,0.13
2013-9-6,67,63,61,67,63,61,100,100,100,30.06,29.94,3,1,11,0.03
2013-9-7,72,64,58,72,64,58,100,100,100,30.06,29.96,1,0,8,0.01
2013-9-8,68,62,58,68,62,58,100,100,100,30.06,29.99,2,0,11,0.00
2013-9-9,66,61,56,66,61,56,100,100,100,30.02,29.94,2,0,8,0.01
2013-9-10,83,65,56,81,65,56,100,100,93,29.94,29.75,2,0,6,0.00
2013-9-11,71,62,55,71,62,55,100,100,100,29.94,29.74,5,2,14,0.00
2013-9-12,63,60,58,63,60,58,100,100,100,29.95,29.91,3,1,8,0.02
2013-9-13,65,62,60,65,62,60,100,100,100,29.94,29.83,1,0,5,0.00
2013-9-14,67,62,60,67,62,60,100,100,100,29.83,29.70,1,0,8,0.00
2013-9-15,63,61,60,63,61,60,100,100,100,29.80,29.68,2,0,7,0.12
2013-9-16,70,62,55,70,62,55,100,100,100,29.91,29.80,4,1,11,0.17
2013-9-17,69,60,53,69,60,53,100,100,100,29.93,29.83,3,0,8,0.02
2013-9-18,68,60,54,68,60,54,100,100,100,30.03,29.93,4,0,11,0.05
2013-9-19,73,61,52,71,60,52,100,98,87,29.95,29.72,5,1,12,0.00
2013-9-20,64,59,55,64,59,55,100,100,100,29.72,29.57,5,1,17,0.35
2013-9-21,67,58,52,66,58,52,100,100,100,29.68,29.61,3,0,10,0.06
2013-9-22,67,59,55,67,59,55,100,100,100,29.72,29.49,11,3,28,1.43
2013-9-23,63,58,51,63,58,51,100,100,100,29.93,29.72,4,1,18,0.12
2013-9-24,61,53,50,61,53,50,100,100,100,29.92,29.80,4,0,11,0.36
2013-9-25,64,53,47,64,53,47,100,100,100,29.99,29.80,3,0,8,0.38
2013-9-26,66,55,47,66,55,47,100,100,100,30.09,29.98,2,0,7,0.00
2013-9-27,60,57,52,60,57,52,100,100,100,30.08,29.79,8,2,28,0.86
2013-9-28,61,58,54,61,58,54,100,100,100,29.79,29.35,12,4,34,2.97
2013-9-29,59,56,53,59,56,53,100,100,100,29.50,29.15,12,5,34,1.23
2013-9-30,62,56,52,62,56,52,100,100,100,29.87,29.41,6,3,25,0.30
2013-10-1,62,55,50,62,55,50,100,100,100,30.09,29.85,4,1,19,0.08
2013-10-2,56,50,45,55,50,45,100,100,100,30.12,30.00,4,1,12,0.14
2013-10-3,45,43,42,45,43,42,100,100,100,30.24,30.13,0,0,1,0.00